createdAt,value
2018-02-19T00:01:11.683Z,62.40
2018-02-19T00:03:44.721Z,62.20
2018-02-19T00:06:14.719Z,62.10
2018-02-19T00:08:46.929Z,62.20
2018-02-19T00:11:16.210Z,62.10
2018-02-19T00:13:51.072Z,62.00
2018-02-19T00:16:20.636Z,62.10
2018-02-19T00:18:51.511Z,62.20
2018-02-19T00:21:20.608Z,62.80
2018-02-19T00:23:56.875Z,62.50
2018-02-19T00:26:25.930Z,62.90
2018-02-19T00:28:55.482Z,63.00
2018-02-19T00:31:25.419Z,62.70
2018-02-19T00:33:58.258Z,63.10
2018-02-19T00:36:27.342Z,63.00
2018-02-19T00:38:59.930Z,62.60
2018-02-19T00:41:28.917Z,62.20
2018-02-19T00:44:02.740Z,62.50
2018-02-19T00:46:32.100Z,62.70
2018-02-19T00:49:05.523Z,62.90
2018-02-19T00:51:34.588Z,62.90
2018-02-19T00:54:07.251Z,62.30
2018-02-19T00:56:36.275Z,62.00
2018-02-19T00:59:08.539Z,62.30
2018-02-19T01:01:37.995Z,62.10
2018-02-19T01:04:13.008Z,62.30
2018-02-19T01:06:42.042Z,62.00
2018-02-19T01:09:14.607Z,62.00
2018-02-19T01:11:44.409Z,62.10
2018-02-19T01:14:16.316Z,62.20
2018-02-19T01:16:45.442Z,62.50
2018-02-19T01:19:17.897Z,62.50
2018-02-19T01:21:47.289Z,62.20
2018-02-19T01:24:20.260Z,62.40
2018-02-19T01:26:49.985Z,62.10
2018-02-19T01:29:22.144Z,62.10
2018-02-19T01:31:51.127Z,62.70
2018-02-19T01:34:23.671Z,62.20
2018-02-19T01:36:55.611Z,62.10
2018-02-19T01:39:25.456Z,62.20
2018-02-19T01:41:55.232Z,62.50
2018-02-19T01:44:27.721Z,62.50
2018-02-19T01:46:56.631Z,62.00
2018-02-19T01:49:29.634Z,61.50
2018-02-19T01:51:58.548Z,61.40
2018-02-19T01:54:31.548Z,61.40
2018-02-19T01:57:00.496Z,61.60
2018-02-19T01:59:33.375Z,61.70
2018-02-19T02:02:02.705Z,61.60
2018-02-19T02:04:35.359Z,61.50
2018-02-19T02:07:05.137Z,61.70
2018-02-19T02:09:37.575Z,61.70
2018-02-19T02:12:08.045Z,62.30
2018-02-19T02:14:40.018Z,61.70
2018-02-19T02:17:11.998Z,61.40
2018-02-19T02:19:42.208Z,61.30
2018-02-19T02:22:11.165Z,61.30
2018-02-19T02:24:44.172Z,61.20
2018-02-19T02:27:13.857Z,61.30
2018-02-19T02:29:46.221Z,61.30
2018-02-19T02:32:15.457Z,61.40
2018-02-19T02:34:48.394Z,61.60
2018-02-19T02:37:17.399Z,60.90
2018-02-19T02:39:50.657Z,60.70
2018-02-19T02:42:19.695Z,60.60
2018-02-19T02:44:53.231Z,60.40
2018-02-19T02:47:22.488Z,60.50
2018-02-19T02:49:55.194Z,60.80
2018-02-19T02:52:24.133Z,60.80
2018-02-19T02:54:57.783Z,61.00
2018-02-19T02:57:27.482Z,61.00
2018-02-19T02:59:59.988Z,61.10
2018-02-19T03:02:29.714Z,61.10
2018-02-19T03:05:02.415Z,61.30
2018-02-19T03:07:31.421Z,61.00
2018-02-19T03:10:04.501Z,62.00
2018-02-19T03:12:33.563Z,61.30
2018-02-19T03:15:06.579Z,61.60
2018-02-19T03:17:35.912Z,61.60
2018-02-19T03:20:09.550Z,61.90
2018-02-19T03:22:38.626Z,61.90
2018-02-19T03:25:13.611Z,61.50
2018-02-19T03:27:42.605Z,61.30
2018-02-19T03:30:13.806Z,61.40
2018-02-19T03:32:43.851Z,61.40
2018-02-19T03:35:19.909Z,61.60
2018-02-19T03:37:48.856Z,61.50
2018-02-19T03:40:18.540Z,61.50
2018-02-19T03:42:48.259Z,61.50
2018-02-19T03:45:21.030Z,61.20
2018-02-19T03:47:50.759Z,61.10
2018-02-19T03:50:23.092Z,61.10
2018-02-19T03:52:52.362Z,61.30
2018-02-19T03:55:24.556Z,61.60
2018-02-19T03:57:53.540Z,61.60
2018-02-19T04:00:25.527Z,61.60
2018-02-19T04:02:55.304Z,61.80
2018-02-19T04:05:28.570Z,61.80
2018-02-19T04:07:57.811Z,61.60
2018-02-19T04:10:29.513Z,61.70
2018-02-19T04:12:58.441Z,61.00
2018-02-19T04:15:31.702Z,61.10
2018-02-19T04:18:00.698Z,60.50
2018-02-19T04:20:33.395Z,60.90
2018-02-19T04:23:03.102Z,60.30
2018-02-19T04:25:35.404Z,60.30
2018-02-19T04:28:05.135Z,60.40
2018-02-19T04:30:37.825Z,60.90
2018-02-19T04:33:07.073Z,60.90
2018-02-19T04:35:38.723Z,60.80
2018-02-19T04:38:07.695Z,60.40
2018-02-19T04:40:41.750Z,60.00
2018-02-19T04:43:10.824Z,59.30
2018-02-19T04:45:43.998Z,59.30
2018-02-19T04:48:13.281Z,59.50
2018-02-19T04:50:45.808Z,59.70
2018-02-19T04:53:14.803Z,60.00
2018-02-19T04:55:47.925Z,59.60
2018-02-19T04:58:17.012Z,59.10
2018-02-19T05:00:50.039Z,58.90
2018-02-19T05:03:19.034Z,58.60
2018-02-19T05:05:52.319Z,58.50
2018-02-19T05:08:21.639Z,58.60
2018-02-19T05:10:54.456Z,58.90
2018-02-19T05:13:24.148Z,58.30
2018-02-19T05:15:57.153Z,58.30
2018-02-19T05:18:26.894Z,58.40
2018-02-19T05:20:58.016Z,58.40
2018-02-19T05:23:35.574Z,58.50
2018-02-19T05:26:04.516Z,58.10
2018-02-19T05:28:33.492Z,57.90
2018-02-19T05:31:04.029Z,57.50
2018-02-19T05:33:36.143Z,58.40
2018-02-19T05:36:07.015Z,58.10
2018-02-19T05:38:35.981Z,58.20
2018-02-19T05:41:08.920Z,57.90
2018-02-19T05:43:37.905Z,57.90
2018-02-19T05:46:11.920Z,57.70
2018-02-19T05:48:41.383Z,57.40
2018-02-19T05:51:14.565Z,57.30
2018-02-19T05:53:44.633Z,57.20
2018-02-19T05:56:16.488Z,57.30
2018-02-19T05:58:45.445Z,58.10
2018-02-19T06:01:17.798Z,58.10
2018-02-19T06:03:47.110Z,58.10
2018-02-19T06:06:20.396Z,58.80
2018-02-19T06:08:50.155Z,58.60
2018-02-19T06:11:22.115Z,58.60
2018-02-19T06:13:51.121Z,58.50
2018-02-19T06:16:24.217Z,58.70
2018-02-19T06:18:53.533Z,59.30
2018-02-19T06:21:26.147Z,59.50
2018-02-19T06:23:55.140Z,59.60
2018-02-19T06:26:28.507Z,58.00
2018-02-19T06:29:04.679Z,57.00
2018-02-19T06:31:34.207Z,56.90
2018-02-19T06:34:03.325Z,57.10
2018-02-19T06:36:32.401Z,56.60
2018-02-19T06:39:03.079Z,56.10
2018-02-19T06:41:34.798Z,56.40
2018-02-19T06:44:03.808Z,57.20
2018-02-19T06:46:36.882Z,55.90
2018-02-19T06:49:05.876Z,55.30
2018-02-19T06:51:40.430Z,55.00
2018-02-19T06:54:09.391Z,55.30
2018-02-19T06:56:41.956Z,55.20
2018-02-19T06:59:10.967Z,55.30
2018-02-19T07:01:44.143Z,55.20
2018-02-19T07:04:13.503Z,55.60
2018-02-19T07:06:46.625Z,56.20
2018-02-19T07:09:15.625Z,56.20
2018-02-19T07:11:48.484Z,56.30
2018-02-19T07:14:17.443Z,55.60
2018-02-19T07:16:52.015Z,56.20
2018-02-19T07:19:21.532Z,56.50
2018-02-19T07:21:54.029Z,56.60
2018-02-19T07:24:23.093Z,57.20
2018-02-19T07:26:56.941Z,55.90
2018-02-19T07:29:25.962Z,56.00
2018-02-19T07:31:59.655Z,55.70
2018-02-19T07:34:30.332Z,56.70
2018-02-19T07:37:00.320Z,56.70
2018-02-19T07:39:29.366Z,57.20
2018-02-19T07:42:04.161Z,56.20
2018-02-19T07:44:33.219Z,56.50
2018-02-19T07:47:06.324Z,53.60
2018-02-19T07:49:35.615Z,53.60
2018-02-19T07:52:09.091Z,54.30
2018-02-19T07:54:38.204Z,54.40
2018-02-19T07:57:12.350Z,54.50
2018-02-19T07:59:41.452Z,54.50
2018-02-19T08:02:15.468Z,54.50
2018-02-19T08:04:45.628Z,54.80
2018-02-19T08:07:16.604Z,55.00
2018-02-19T08:09:45.648Z,55.00
2018-02-19T08:12:18.366Z,54.20
2018-02-19T08:14:47.380Z,54.00
2018-02-19T08:17:21.470Z,54.60
2018-02-19T08:19:51.049Z,55.60
2018-02-19T08:22:22.431Z,54.70
2018-02-19T08:24:51.573Z,56.00
2018-02-19T08:27:24.813Z,54.60
2018-02-19T08:29:53.956Z,53.10
2018-02-19T08:32:26.496Z,53.80
2018-02-19T08:34:55.847Z,54.00
2018-02-19T08:37:28.289Z,53.10
2018-02-19T08:39:57.482Z,54.20
2018-02-19T08:42:30.352Z,54.30
2018-02-19T08:44:59.621Z,55.10
2018-02-19T08:47:33.877Z,54.10
2018-02-19T08:50:04.332Z,54.30
2018-02-19T08:52:34.417Z,53.10
2018-02-19T08:55:03.539Z,53.20
2018-02-19T08:57:36.968Z,53.50
2018-02-19T09:00:06.196Z,53.10
2018-02-19T09:02:39.584Z,53.30
2018-02-19T09:05:08.944Z,52.50
2018-02-19T09:07:41.197Z,53.10
2018-02-19T09:10:10.208Z,53.20
2018-02-19T09:12:44.237Z,53.10
2018-02-19T09:15:14.653Z,53.40
2018-02-19T09:17:45.830Z,53.30
2018-02-19T09:20:15.284Z,52.80
2018-02-19T09:22:47.739Z,52.70
2018-02-19T09:25:16.792Z,52.60
2018-02-19T09:27:50.127Z,54.90
2018-02-19T09:30:20.117Z,53.70
2018-02-19T09:32:52.827Z,54.70
2018-02-19T09:35:22.212Z,54.70
2018-02-19T09:37:55.012Z,53.60
2018-02-19T09:40:24.167Z,53.70
2018-02-19T09:42:58.631Z,54.10
2018-02-19T09:45:27.771Z,52.90
2018-02-19T09:48:01.404Z,54.00
2018-02-19T09:50:31.524Z,53.50
2018-02-19T17:41:49.825Z,52.50
2018-02-19T17:46:50.207Z,52.20
2018-02-19T17:49:23.743Z,52.60
2018-02-19T17:52:00.277Z,52.80
2018-02-19T17:54:42.752Z,52.90
2018-02-19T17:57:16.660Z,53.30
2018-02-19T17:59:50.668Z,53.40
2018-02-19T18:02:25.010Z,53.80
2018-02-19T18:04:59.001Z,53.80
2018-02-19T18:07:42.528Z,53.90
2018-02-19T18:10:17.408Z,53.90
2018-02-19T18:12:54.270Z,54.00
2018-02-19T18:15:31.242Z,54.20
2018-02-19T18:18:05.439Z,54.70
2018-02-19T18:23:20.420Z,54.40
2018-02-19T18:25:56.370Z,54.50
2018-02-19T18:28:32.335Z,54.50
2018-02-19T18:31:07.750Z,55.20
2018-02-19T18:33:43.211Z,55.20
2018-02-19T18:36:19.398Z,54.40
2018-02-19T18:38:59.545Z,54.40
2018-02-19T18:41:33.068Z,54.30
2018-02-19T18:44:07.309Z,54.20
2018-02-19T18:46:41.984Z,54.40
2018-02-19T18:49:18.480Z,54.20
2018-02-19T18:51:52.733Z,55.00
2018-02-19T18:54:29.916Z,55.10
2018-02-19T18:57:12.607Z,54.30
2018-02-19T18:59:47.958Z,54.30
2018-02-19T19:02:22.463Z,54.30
2018-02-19T19:04:59.827Z,54.80
2018-02-19T19:07:40.836Z,54.70
2018-02-19T19:10:55.547Z,55.00
2018-02-19T19:13:32.423Z,54.70
2018-02-19T19:16:16.057Z,54.40
2018-02-19T19:18:54.687Z,54.10
2018-02-19T19:21:29.848Z,54.10
2018-02-19T19:24:04.284Z,54.00
2018-02-19T19:26:39.028Z,54.30
2018-02-19T19:29:26.169Z,54.40
2018-02-19T19:32:03.932Z,54.00
2018-02-19T19:34:40.033Z,54.00
2018-02-19T19:37:14.349Z,54.40
2018-02-19T19:39:49.821Z,54.30
2018-02-19T19:44:51.680Z,54.30
2018-02-19T19:47:34.820Z,54.60
2018-02-19T19:50:10.521Z,54.50
2018-02-19T19:52:44.712Z,54.50
2018-02-19T19:55:18.048Z,54.90
2018-02-19T19:57:51.441Z,54.50
2018-02-19T20:00:34.575Z,54.70
2018-02-19T20:03:08.184Z,54.70
2018-02-19T20:05:47.410Z,54.70
2018-02-19T20:08:23.277Z,54.90
2018-02-19T20:10:58.833Z,54.60
2018-02-19T20:13:39.499Z,55.00
2018-02-19T20:16:12.798Z,54.90
2018-02-19T20:18:49.092Z,55.00
2018-02-19T20:21:22.386Z,55.20
2018-02-19T20:23:55.333Z,55.00
2018-02-19T20:26:30.400Z,54.90
2018-02-19T20:29:06.890Z,54.90
2018-02-19T20:31:49.940Z,55.10
2018-02-19T20:34:24.736Z,55.10
2018-02-19T20:36:59.620Z,55.40
2018-02-19T20:39:34.992Z,55.30
2018-02-19T20:42:11.154Z,55.10
2018-02-19T20:47:28.613Z,55.50
2018-02-19T20:50:03.705Z,56.40
2018-02-19T20:52:38.220Z,56.40
2018-02-19T20:55:11.445Z,56.40
2018-02-19T20:57:47.602Z,57.00
2018-02-19T21:00:21.910Z,56.00
2018-02-19T21:03:02.225Z,55.80
2018-02-19T21:05:35.838Z,56.00
2018-02-19T21:08:10.534Z,55.50
2018-02-19T21:10:43.599Z,55.60
2018-02-19T21:13:19.606Z,55.60
2018-02-19T21:15:53.521Z,55.60
2018-02-19T21:18:26.460Z,55.30
2018-02-19T21:21:02.055Z,55.60
2018-02-19T21:23:35.338Z,55.60
2018-02-19T21:26:13.848Z,55.50
2018-02-19T21:28:47.210Z,55.50
2018-02-19T21:31:22.002Z,55.80
2018-02-19T21:33:54.866Z,55.80
2018-02-19T21:36:28.688Z,55.60
2018-02-19T21:39:01.142Z,55.30
2018-02-19T21:41:33.693Z,55.40
2018-02-19T21:44:05.296Z,55.50
2018-02-19T21:46:36.981Z,55.30
2018-02-19T21:49:09.355Z,55.30
2018-02-19T21:51:41.551Z,55.60
2018-02-19T21:54:12.834Z,55.60
2018-02-19T21:56:42.494Z,55.70
2018-02-19T21:59:13.206Z,55.50
2018-02-19T22:01:43.895Z,55.50
2018-02-19T22:04:13.113Z,55.70
2018-02-19T22:06:43.631Z,55.70
2018-02-19T22:09:13.665Z,55.80
2018-02-19T22:11:45.698Z,55.40
2018-02-19T22:14:17.436Z,55.40
2018-02-19T22:16:49.402Z,55.50
2018-02-19T22:19:22.013Z,55.50
2018-02-19T22:21:56.008Z,55.40
2018-02-19T22:24:27.059Z,55.40
2018-02-19T22:26:58.146Z,55.60
2018-02-19T22:29:29.976Z,55.50
2018-02-19T22:32:01.352Z,55.50
2018-02-19T22:34:31.902Z,55.50
2018-02-19T22:37:01.742Z,55.60
2018-02-19T22:39:31.048Z,55.70
2018-02-19T22:42:00.758Z,55.60
2018-02-19T22:44:30.500Z,55.60
2018-02-19T22:47:00.329Z,56.00
2018-02-19T22:49:30.786Z,56.00
2018-02-19T22:52:00.066Z,55.60
2018-02-19T22:54:29.096Z,55.60
2018-02-19T22:56:58.467Z,55.50
2018-02-19T22:59:28.171Z,55.80
2018-02-19T23:01:57.250Z,55.80
2018-02-19T23:04:26.648Z,55.90
2018-02-19T23:07:08.751Z,55.90
2018-02-19T23:09:38.292Z,55.90
2018-02-19T23:12:07.362Z,55.80
2018-02-19T23:14:36.359Z,56.20
2018-02-19T23:17:05.769Z,56.30
2018-02-19T23:19:35.111Z,56.50
2018-02-19T23:22:06.800Z,56.30
2018-02-19T23:24:36.076Z,56.50
2018-02-19T23:27:08.952Z,56.50
2018-02-19T23:29:37.965Z,56.50
2018-02-19T23:32:13.125Z,57.00
2018-02-19T23:34:42.238Z,56.80
2018-02-19T23:37:13.825Z,56.80
2018-02-19T23:39:44.052Z,56.80
2018-02-19T23:42:16.916Z,56.60
2018-02-19T23:44:45.888Z,56.60
2018-02-19T23:47:18.301Z,56.30
2018-02-19T23:49:48.215Z,56.90
2018-02-19T23:52:20.556Z,56.90
2018-02-19T23:54:50.521Z,56.90
2018-02-19T23:57:22.764Z,56.40
2018-02-19T23:59:52.497Z,56.60
